Time;durP1;ratioP1;P1;durP2;ratioP2;P2;SDS_P1;SDS_P2;PMS_P1;PMS_P2;Temp;Humidity;BMP_temperature;BMP_pressure;BME280_temperature;BME280_humidity;BME280_pressure;Samples;Min_cycle;Max_cycle;Signal;HPM_P1;HPM_P2
2021/06/16 00:00:35;;;;;;;11.45;2.20;;;;;;;10.58;100.00;101000.06;5076750;28;20017;-78
2021/06/16 00:03:01;;;;;;;6.45;1.88;;;;;;;10.47;100.00;101000.19;5079366;28;20029;-78
2021/06/16 00:05:29;;;;;;;6.07;1.50;;;;;;;10.46;100.00;101005.38;5077045;28;20020;-78
2021/06/16 00:07:55;;;;;;;5.32;1.80;;;;;;;10.35;100.00;101006.34;5078099;28;20021;-78
2021/06/16 00:10:28;;;;;;;12.27;2.47;;;;;;;10.49;100.00;100998.41;5077269;28;20051;-78
2021/06/16 00:12:53;;;;;;;6.15;2.03;;;;;;;10.32;100.00;101003.78;5079311;28;20384;-79
2021/06/16 00:15:26;;;;;;;6.65;1.95;;;;;;;10.24;100.00;100999.53;5076723;28;20044;-78
2021/06/16 00:17:51;;;;;;;8.43;2.13;;;;;;;10.26;100.00;100992.59;5078739;28;20028;-79
2021/06/16 00:20:16;;;;;;;13.93;2.53;;;;;;;10.20;100.00;100990.91;5080092;28;20029;-79
2021/06/16 00:22:42;;;;;;;7.65;2.10;;;;;;;10.15;100.00;100992.69;5077800;28;20025;-79
2021/06/16 00:25:08;;;;;;;7.05;1.83;;;;;;;10.11;100.00;100996.19;5076608;28;20020;-79
2021/06/16 00:27:33;;;;;;;8.43;1.90;;;;;;;10.15;100.00;100990.09;5076625;28;20031;-79
2021/06/16 00:29:59;;;;;;;7.80;2.13;;;;;;;10.11;100.00;100993.59;5076526;28;20059;-79
2021/06/16 00:32:24;;;;;;;8.35;2.22;;;;;;;10.07;100.00;100987.59;5077793;28;20065;-79
2021/06/16 00:34:50;;;;;;;13.27;2.22;;;;;;;10.05;100.00;100989.31;5076076;28;20380;-79
2021/06/16 00:37:15;;;;;;;7.25;2.22;;;;;;;10.01;100.00;100979.00;5077684;28;20035;-79
2021/06/16 00:39:40;;;;;;;7.70;2.28;;;;;;;9.97;100.00;100982.47;5078393;28;20393;-79
2021/06/16 00:42:06;;;;;;;9.80;2.58;;;;;;;10.06;100.00;100978.06;5078994;28;20016;-79
2021/06/16 00:44:31;;;;;;;9.63;2.00;;;;;;;9.99;100.00;100978.16;5076707;28;20024;-79
2021/06/16 00:46:56;;;;;;;7.22;1.90;;;;;;;9.95;100.00;100984.25;5077740;28;20035;-79
2021/06/16 00:49:22;;;;;;;8.05;2.17;;;;;;;10.00;100.00;100975.53;5078692;28;20051;-79
2021/06/16 00:51:47;;;;;;;12.98;2.47;;;;;;;10.04;100.00;100976.41;5077238;28;20447;-79
2021/06/16 00:54:13;;;;;;;6.78;1.98;;;;;;;9.96;100.00;100970.41;5076041;28;20020;-79
2021/06/16 00:56:41;;;;;;;9.90;2.20;;;;;;;9.85;100.00;100967.91;5077119;28;20025;-79
2021/06/16 00:59:07;;;;;;;15.00;2.45;;;;;;;9.78;100.00;100971.44;5078097;28;20032;-79
2021/06/16 01:01:36;;;;;;;10.88;2.50;;;;;;;9.82;100.00;100976.59;5077485;28;20021;-79
2021/06/16 01:04:35;;;;;;;9.75;1.98;;;;;;;9.80;100.00;100977.47;5078048;28;20032;-79
2021/06/16 01:07:13;;;;;;;14.07;2.20;;;;;;;9.78;100.00;100972.28;5067333;28;20086;-79
2021/06/16 01:09:47;;;;;;;9.20;2.00;;;;;;;9.77;100.00;100972.31;5082038;28;20036;-78
2021/06/16 01:12:46;;;;;;;7.93;2.17;;;;;;;9.77;100.00;100973.16;5080072;28;20028;-78
2021/06/16 01:15:16;;;;;;;10.75;2.30;;;;;;;9.73;100.00;100973.19;5080087;28;20028;-78
2021/06/16 01:17:51;;;;;;;13.02;2.55;;;;;;;9.70;100.00;100971.50;5080498;28;20498;-78
2021/06/16 01:20:43;;;;;;;9.70;2.13;;;;;;;9.72;100.00;100966.28;5080861;28;20020;-78
2021/06/16 01:23:08;;;;;;;12.70;2.40;;;;;;;9.68;100.00;100965.47;5079747;28;20028;-78
2021/06/16 01:25:41;;;;;;;9.73;2.67;;;;;;;9.63;100.00;100965.47;5080505;28;20458;-78
2021/06/16 01:28:08;;;;;;;7.60;2.17;;;;;;;9.62;100.00;100963.78;5080681;28;20025;-79
2021/06/16 01:30:35;;;;;;;10.73;2.30;;;;;;;9.66;100.00;100964.59;5082888;28;20108;-79
2021/06/16 01:33:02;;;;;;;8.02;2.45;;;;;;;9.66;100.00;100969.78;5082219;28;20031;-79
2021/06/16 01:35:29;;;;;;;11.02;2.45;;;;;;;9.62;100.00;100963.78;5082460;28;20028;-79
2021/06/16 01:37:56;;;;;;;7.18;2.17;;;;;;;9.66;100.00;100965.47;5082006;28;20024;-79
2021/06/16 01:40:24;;;;;;;12.02;3.00;;;;;;;9.67;100.00;100966.34;5082235;28;20021;-79
2021/06/16 01:42:51;;;;;;;14.50;2.72;;;;;;;9.67;100.00;100956.84;5080557;28;20060;-79
2021/06/16 01:45:19;;;;;;;9.85;2.45;;;;;;;9.66;100.00;100956.84;5079867;28;20036;-79
2021/06/16 01:47:46;;;;;;;11.57;2.63;;;;;;;9.67;100.00;100961.16;5081358;28;20020;-79
2021/06/16 01:50:14;;;;;;;8.90;2.35;;;;;;;9.64;100.00;100956.00;5081360;28;20043;-79
2021/06/16 01:52:41;;;;;;;8.48;2.20;;;;;;;9.71;100.00;100964.59;5079248;28;20024;-79
2021/06/16 01:55:07;;;;;;;12.80;2.60;;;;;;;9.69;100.00;100965.44;5079769;28;20119;-79
2021/06/16 01:57:35;;;;;;;9.10;2.15;;;;;;;9.69;100.00;100967.16;5081563;28;20047;-79
2021/06/16 02:00:01;;;;;;;10.10;2.63;;;;;;;9.69;100.00;100959.41;5080526;28;20388;-79
2021/06/16 02:02:26;;;;;;;10.18;2.88;;;;;;;9.78;100.00;100961.06;5081969;28;20025;-79
2021/06/16 02:04:52;;;;;;;6.93;2.92;;;;;;;9.73;100.00;100961.13;5079914;28;20020;-79
2021/06/16 02:07:28;;;;;;;7.55;2.40;;;;;;;9.65;100.00;100963.75;5080576;28;20030;-79
2021/06/16 02:09:54;;;;;;;8.90;2.72;;;;;;;9.60;100.00;100972.44;5081799;28;20031;-79
2021/06/16 02:12:21;;;;;;;8.32;2.70;;;;;;;9.59;100.00;100975.91;5081059;28;20029;-79
2021/06/16 02:15:00;;;;;;;10.82;3.05;;;;;;;9.59;100.00;100975.91;5082425;28;20020;-79
2021/06/16 02:17:29;;;;;;;10.00;2.53;;;;;;;9.55;100.00;100977.66;5081533;28;20031;-81
2021/06/16 02:19:55;;;;;;;7.45;2.58;;;;;;;9.55;100.00;100976.81;5079817;28;20119;-79
2021/06/16 02:22:25;;;;;;;10.63;2.80;;;;;;;9.54;100.00;100973.31;5082230;28;20052;-79
2021/06/16 02:24:50;;;;;;;9.23;2.95;;;;;;;9.52;100.00;100971.66;5082543;28;20099;-79
2021/06/16 02:27:16;;;;;;;10.27;2.70;;;;;;;9.55;100.00;100976.81;5083271;28;20480;-79
2021/06/16 02:29:41;;;;;;;8.15;2.33;;;;;;;9.56;100.00;100974.19;5080369;28;20115;-79
2021/06/16 02:32:07;;;;;;;11.32;2.67;;;;;;;9.54;100.00;100967.28;5080350;28;20480;-79
2021/06/16 02:34:33;;;;;;;7.00;2.63;;;;;;;9.51;100.00;100964.72;5082009;28;20025;-80
2021/06/16 02:37:01;;;;;;;10.25;2.30;;;;;;;9.53;100.00;100968.16;5082931;28;20024;-79
2021/06/16 02:39:46;;;;;;;11.13;2.85;;;;;;;9.54;100.00;100964.69;5083266;28;20034;-79
2021/06/16 02:42:12;;;;;;;;;;;;;;;9.53;100.00;100961.25;5083873;28;20048;-79
2021/06/16 02:44:42;;;;;;;8.10;2.88;;;;;;;9.48;100.00;100956.97;5080456;28;19913;-79
2021/06/16 02:47:09;;;;;;;7.97;2.40;;;;;;;9.51;100.00;100955.22;5080839;28;20111;-79
2021/06/16 02:49:40;;;;;;;8.43;2.38;;;;;;;9.48;100.00;100960.41;5079940;28;20032;-79
2021/06/16 02:52:09;;;;;;;11.82;3.13;;;;;;;9.49;100.00;100953.53;5083578;28;20029;-80
2021/06/16 02:54:36;;;;;;;7.50;2.85;;;;;;;9.49;100.00;100953.53;5085924;28;20021;-80
2021/06/16 02:57:03;;;;;;;8.38;2.92;;;;;;;9.45;100.00;100945.78;5085835;28;20091;-79
2021/06/16 02:59:30;;;;;;;9.32;2.63;;;;;;;9.45;100.00;100953.56;5085189;28;20027;-79
2021/06/16 03:01:56;;;;;;;12.35;2.72;;;;;;;9.41;100.00;100949.25;5083577;28;20113;-79
2021/06/16 03:04:22;;;;;;;12.05;2.80;;;;;;;9.38;100.00;100948.41;5083688;28;20060;-79
2021/06/16 03:06:48;;;;;;;8.82;2.75;;;;;;;9.38;100.00;100949.28;5085717;28;20016;-79
2021/06/16 03:09:17;;;;;;;7.47;2.72;;;;;;;9.38;100.00;100941.50;5085439;28;20080;-79
2021/06/16 03:11:44;;;;;;;7.75;2.78;;;;;;;9.44;100.00;100950.97;5084804;28;20032;-79
2021/06/16 03:14:10;;;;;;;9.95;2.42;;;;;;;9.54;100.00;100946.56;5084905;28;20027;-79
2021/06/16 03:16:35;;;;;;;13.15;2.67;;;;;;;9.57;100.00;100946.56;5086173;28;20026;-79
2021/06/16 03:19:02;;;;;;;9.75;2.90;;;;;;;9.56;100.00;100942.25;5085063;28;20083;-79
2021/06/16 03:21:29;;;;;;;7.63;3.10;;;;;;;9.60;100.00;100949.13;5086243;28;20024;-79
2021/06/16 03:23:55;;;;;;;8.55;3.15;;;;;;;9.69;100.00;100941.28;5086637;28;20024;-79
2021/06/16 03:26:22;;;;;;;8.38;2.75;;;;;;;9.72;100.00;100942.97;5085792;28;20025;-79
2021/06/16 03:28:49;;;;;;;8.80;2.63;;;;;;;9.76;100.00;100950.72;5082275;28;20027;-79
2021/06/16 03:31:15;;;;;;;11.00;2.92;;;;;;;9.74;100.00;100947.28;5085182;28;20111;-79
2021/06/16 03:33:45;;;;;;;8.60;2.72;;;;;;;9.83;100.00;100944.63;5085257;28;20070;-79
2021/06/16 03:36:12;;;;;;;8.95;2.95;;;;;;;9.85;100.00;100947.19;5085618;28;20040;-79
2021/06/16 03:38:39;;;;;;;11.65;3.00;;;;;;;9.85;100.00;100945.47;5083450;28;20021;-79
2021/06/16 03:41:05;;;;;;;10.95;3.50;;;;;;;9.97;100.00;100943.63;5085327;28;20021;-79
2021/06/16 03:43:31;;;;;;;10.32;2.97;;;;;;;10.04;100.00;100947.88;5084531;28;20032;-79
2021/06/16 03:45:57;;;;;;;12.10;3.00;;;;;;;10.11;100.00;100947.78;5084341;28;20017;-79
2021/06/16 03:48:25;;;;;;;11.50;3.40;;;;;;;10.21;100.00;100945.97;5085142;28;20054;-79
2021/06/16 03:50:51;;;;;;;11.32;3.08;;;;;;;10.29;100.00;100939.00;5085750;28;20020;-79
2021/06/16 03:53:17;;;;;;;9.57;2.70;;;;;;;10.32;100.00;100940.72;5082727;28;20012;-79
2021/06/16 03:55:45;;;;;;;10.82;3.58;;;;;;;10.38;100.00;100935.47;5085452;28;20476;-79
2021/06/16 03:58:12;;;;;;;10.57;2.92;;;;;;;10.56;100.00;100926.56;5084599;28;20042;-79
2021/06/16 04:00:41;;;;;;;14.48;3.00;;;;;;;10.53;100.00;100929.22;5085747;28;20020;-79
2021/06/16 04:03:07;;;;;;;10.65;2.78;;;;;;;10.56;100.00;100926.56;5085194;28;20032;-79
2021/06/16 04:05:33;;;;;;;9.95;3.03;;;;;;;10.72;100.00;100930.72;5086206;28;20033;-79
2021/06/16 04:07:59;;;;;;;8.25;2.47;;;;;;;10.78;100.00;100929.78;5084918;28;20537;-79
2021/06/16 04:10:25;;;;;;;8.98;2.80;;;;;;;10.88;100.00;100921.00;5083376;28;20025;-79
2021/06/16 04:12:51;;;;;;;9.40;3.10;;;;;;;10.94;100.00;100923.50;5083653;28;20052;-79
2021/06/16 04:15:17;;;;;;;7.80;2.35;;;;;;;11.05;100.00;100933.72;5085365;28;20098;-79
2021/06/16 04:17:43;;;;;;;7.80;2.75;;;;;;;11.16;100.00;100931.00;5083387;28;20027;-80
2021/06/16 04:20:09;;;;;;;8.90;2.60;;;;;;;11.25;100.00;100923.06;5085315;28;20028;-80
2021/06/16 04:22:35;;;;;;;7.60;2.60;;;;;;;11.40;100.00;100932.34;5084217;28;20400;-80
2021/06/16 04:25:00;;;;;;;10.65;2.42;;;;;;;11.54;100.00;100932.97;5085862;28;20024;-79
2021/06/16 04:27:25;;;;;;;9.00;2.70;;;;;;;11.63;100.00;100934.56;5084383;28;20039;-79
2021/06/16 04:29:51;;;;;;;10.88;2.72;;;;;;;11.72;100.00;100942.22;5083776;28;20020;-79
2021/06/16 04:32:17;;;;;;;8.65;2.30;;;;;;;11.74;100.00;100936.13;5085491;28;20025;-80
2021/06/16 04:34:42;;;;;;;8.82;2.10;;;;;;;11.84;100.00;100935.97;5088723;28;20032;-80
2021/06/16 04:37:09;;;;;;;9.85;2.50;;;;;;;11.91;100.00;100935.00;5088270;28;20472;-80
2021/06/16 04:39:34;;;;;;;8.77;2.47;;;;;;;12.03;100.00;100937.38;5089033;28;20027;-80
2021/06/16 04:42:00;;;;;;;12.85;2.58;;;;;;;12.08;100.00;100938.16;5090694;28;20024;-80
2021/06/16 04:44:25;;;;;;;9.52;2.22;;;;;;;12.12;100.00;100936.34;5085769;28;20028;-80
2021/06/16 04:46:51;;;;;;;14.55;2.38;;;;;;;12.21;100.00;100937.03;5085942;28;20598;-80
2021/06/16 04:49:16;;;;;;;7.30;2.20;;;;;;;12.31;100.00;100942.91;5082903;28;20025;-80
2021/06/16 04:51:41;;;;;;;10.43;3.10;;;;;;;12.39;100.00;100937.56;5086442;28;20028;-80
2021/06/16 04:54:10;;;;;;;10.23;2.20;;;;;;;12.44;100.00;100943.56;5083968;28;20046;-80
2021/06/16 04:56:37;;;;;;;13.98;2.30;;;;;;;12.49;100.00;100941.69;5078996;28;20021;-80
2021/06/16 04:59:02;;;;;;;7.47;1.95;;;;;;;13.17;99.08;100928.09;5083409;28;20028;-80
2021/06/16 05:01:27;;;;;;;9.27;2.17;;;;;;;14.12;92.52;100935.34;5082810;28;20387;-80
2021/06/16 05:03:52;;;;;;;11.65;2.75;;;;;;;14.81;86.90;100934.28;5078217;28;20040;-80
2021/06/16 05:06:18;;;;;;;10.30;1.90;;;;;;;14.78;86.50;100933.50;5080014;28;20034;-80
2021/06/16 05:08:44;;;;;;;11.13;2.40;;;;;;;15.39;82.94;100927.25;5083070;28;20031;-80
2021/06/16 05:11:10;;;;;;;8.68;2.20;;;;;;;15.79;80.51;100925.94;5081035;28;20043;-81
2021/06/16 05:13:35;;;;;;;7.63;2.25;;;;;;;15.94;78.72;100924.56;5080019;28;20443;-80
2021/06/16 05:16:00;;;;;;;10.55;2.20;;;;;;;16.20;77.28;100926.28;5081716;28;20016;-81
2021/06/16 05:18:26;;;;;;;9.23;1.80;;;;;;;16.29;76.86;100925.09;5081540;28;20033;-81
2021/06/16 05:20:52;;;;;;;8.15;2.25;;;;;;;16.54;76.20;100918.06;5082237;28;20024;-80
2021/06/16 05:23:17;;;;;;;8.30;1.98;;;;;;;16.91;74.67;100914.06;5079235;28;20031;-81
2021/06/16 05:25:44;;;;;;;7.28;1.48;;;;;;;17.13;71.95;100908.00;5080302;28;20028;-80
2021/06/16 05:28:09;;;;;;;9.38;1.70;;;;;;;17.38;71.67;100919.19;5082404;28;20033;-81
2021/06/16 05:30:36;;;;;;;14.02;2.40;;;;;;;17.60;69.81;100915.69;5083705;28;20051;-80
2021/06/16 05:50:20;;;;;;;7.97;1.90;;;;;;;18.34;61.93;100901.09;5107054;28;20058;-81
2021/06/16 06:09:35;;;;;;;14.55;2.22;;;;;;;19.05;59.09;100882.91;5113742;28;20047;-82
2021/06/16 06:12:31;;;;;;;10.88;1.50;;;;;;;19.19;58.67;100884.03;5101721;28;20024;-82
2021/06/16 06:14:57;;;;;;;8.63;1.60;;;;;;;19.67;58.52;100886.03;5103442;28;20020;-82
2021/06/16 06:17:22;;;;;;;11.90;2.03;;;;;;;19.03;58.73;100883.94;5081877;28;20024;-82
2021/06/16 06:19:48;;;;;;;8.15;1.67;;;;;;;18.99;59.91;100882.38;5084410;28;20103;-83
2021/06/16 06:22:13;;;;;;;8.60;1.58;;;;;;;19.27;59.43;100884.50;5085212;28;20034;-83
2021/06/16 06:24:38;;;;;;;7.40;1.90;;;;;;;19.39;59.16;100880.41;5086377;28;20016;-83
2021/06/16 06:27:42;;;;;;;9.77;1.75;;;;;;;19.48;58.88;100877.34;5089975;28;20641;-83
2021/06/16 06:30:09;;;;;;;9.02;2.00;;;;;;;19.21;59.85;100883.06;5089940;28;20027;-82
2021/06/16 06:43:00;;;;;;;11.23;1.90;;;;;;;18.89;61.91;100889.00;5102170;28;20055;-82
2021/06/16 06:45:25;;;;;;;12.45;2.00;;;;;;;19.65;60.41;100881.78;5084005;28;20032;-83
2021/06/16 06:47:50;;;;;;;9.30;1.60;;;;;;;20.42;58.69;100879.47;5102316;28;20058;-84
2021/06/16 06:50:16;;;;;;;9.05;1.70;;;;;;;19.93;59.92;100878.59;5101392;28;20037;-83
2021/06/16 06:52:43;;;;;;;8.18;1.63;;;;;;;20.01;57.95;100871.13;5083777;28;20069;-82
2021/06/16 06:58:30;;;;;;;18.48;2.55;;;;;;;20.20;58.74;100863.97;5103836;28;20131;-83
2021/06/16 07:04:17;;;;;;;11.23;1.80;;;;;;;20.34;58.58;100860.56;5103829;28;20042;-82
2021/06/16 07:06:43;;;;;;;9.95;1.80;;;;;;;19.85;58.68;100863.16;5084906;28;20055;-82
2021/06/16 07:09:08;;;;;;;17.65;2.05;;;;;;;20.62;57.56;100859.94;5086615;28;20019;-83
2021/06/16 07:11:34;;;;;;;6.57;1.88;;;;;;;20.95;56.04;100859.00;5086595;28;20043;-83
2021/06/16 07:13:59;;;;;;;7.63;1.77;;;;;;;21.03;56.19;100861.19;5086453;28;20032;-82
2021/06/16 07:16:25;;;;;;;12.05;2.65;;;;;;;20.80;56.60;100854.59;5086493;28;20024;-83
2021/06/16 07:18:51;;;;;;;12.35;2.25;;;;;;;20.69;55.93;100850.78;5090137;28;20119;-83
2021/06/16 07:21:17;;;;;;;13.25;1.95;;;;;;;20.79;55.40;100851.09;5087044;28;20043;-83
2021/06/16 07:23:42;;;;;;;11.40;2.05;;;;;;;21.89;52.96;100861.44;5086674;28;20024;-83
2021/06/16 07:26:08;;;;;;;16.65;2.53;;;;;;;21.37;54.73;100853.06;5086488;28;20043;-83
2021/06/16 07:38:39;;;;;;;9.25;1.90;;;;;;;21.62;54.50;100840.22;5104363;28;20067;-82
2021/06/16 07:41:05;;;;;;;6.72;1.50;;;;;;;22.62;51.70;100835.75;5086743;28;20395;-82
2021/06/16 07:43:30;;;;;;;6.90;1.95;;;;;;;21.11;53.60;100841.34;5084082;28;20115;-82
2021/06/16 07:45:55;;;;;;;7.13;1.50;;;;;;;21.01;54.23;100834.06;5083937;28;20020;-82
2021/06/16 07:48:20;;;;;;;11.43;1.90;;;;;;;22.40;51.45;100827.50;5085184;28;20028;-82
2021/06/16 07:50:46;;;;;;;8.48;1.90;;;;;;;22.79;51.97;100836.47;5085622;28;20297;-82
2021/06/16 07:53:50;;;;;;;11.88;1.67;;;;;;;22.06;50.69;100829.56;5084497;28;20077;-82
2021/06/16 07:56:46;;;;;;;10.68;1.83;;;;;;;21.78;51.47;100831.25;5083972;28;20024;-82
2021/06/16 07:59:11;;;;;;;9.80;1.90;;;;;;;22.41;50.80;100826.53;5102415;28;20032;-82
2021/06/16 08:01:37;;;;;;;12.20;1.92;;;;;;;22.13;50.06;100827.41;5079773;28;20031;-82
2021/06/16 08:04:03;;;;;;;6.22;1.23;;;;;;;21.89;49.32;100827.09;5101271;28;20107;-82
2021/06/16 08:06:28;;;;;;;8.82;1.70;;;;;;;22.13;47.63;100817.66;5083846;28;20047;-83
2021/06/16 08:08:53;;;;;;;12.13;2.10;;;;;;;22.49;48.73;100819.81;5082113;28;20020;-83
2021/06/16 08:11:20;;;;;;;6.78;1.30;;;;;;;22.87;48.73;100824.41;5101018;28;20020;-83
2021/06/16 08:13:46;;;;;;;7.05;2.05;;;;;;;23.16;46.35;100819.06;5083775;28;20499;-83
2021/06/16 08:16:11;;;;;;;9.00;1.55;;;;;;;22.84;45.34;100815.84;5083360;28;20051;-82
2021/06/16 08:25:21;;;;;;;7.63;1.70;;;;;;;23.34;44.73;100814.34;5103810;28;20058;-83
2021/06/16 08:27:47;;;;;;;10.75;1.70;;;;;;;23.38;45.10;100816.66;5085035;28;20497;-82
2021/06/16 08:57:09;;;;;;;5.20;1.38;;;;;;;23.98;43.50;100794.00;5117249;28;20095;-82
2021/06/16 08:59:34;;;;;;;8.85;1.42;;;;;;;24.32;42.70;100797.75;5086664;28;20039;-82
2021/06/16 09:05:37;;;;;;;9.50;1.70;;;;;;;23.80;44.14;100785.56;5095893;28;20043;-82
2021/06/16 09:08:17;;;;;;;6.93;1.50;;;;;;;23.75;44.38;100782.38;5095960;28;20447;-82
2021/06/16 09:10:47;;;;;;;4.72;1.15;;;;;;;23.14;44.49;100784.75;5095704;28;20031;-82
2021/06/16 09:13:27;;;;;;;6.95;1.63;;;;;;;24.00;44.14;100786.78;5095971;28;20057;-82
2021/06/16 09:15:54;;;;;;;6.30;1.58;;;;;;;24.79;41.16;100782.00;5100608;28;20111;-82
2021/06/16 09:21:41;;;;;;;6.93;1.40;;;;;;;24.50;42.75;100770.88;5100515;28;20093;-82
2021/06/16 09:24:07;;;;;;;4.50;1.10;;;;;;;24.09;42.20;100759.63;5101179;28;20028;-82
2021/06/16 09:26:39;;;;;;;4.88;1.20;;;;;;;23.65;42.86;100766.25;5083117;28;20350;-81
2021/06/16 09:29:05;;;;;;;8.00;2.00;;;;;;;24.19;42.69;100766.91;5083383;28;20074;-82
2021/06/16 09:31:42;;;;;;;8.88;1.60;;;;;;;23.78;43.23;100770.72;5083340;28;20016;-82
2021/06/16 09:34:16;;;;;;;5.47;1.30;;;;;;;23.27;44.52;100770.69;5102017;28;20417;-81
2021/06/16 09:36:49;;;;;;;;;;;;;;;24.61;43.12;100770.09;5103023;28;20488;-82
2021/06/16 09:39:18;;;;;;;9.82;1.38;;;;;;;24.46;41.21;100769.41;5103401;28;19934;-81
2021/06/16 09:41:54;;;;;;;4.97;1.20;;;;;;;24.28;42.92;100771.56;5084083;28;20032;-81
2021/06/16 09:54:39;;;;;;;7.80;1.65;;;;;;;25.94;38.08;100739.50;5104449;28;20050;-83
2021/06/16 09:57:04;;;;;;;7.53;2.08;;;;;;;25.91;39.70;100742.41;5089555;28;20024;-82
2021/06/16 09:59:44;;;;;;;6.15;1.63;;;;;;;26.37;38.16;100749.31;5086060;28;20089;-82
2021/06/16 10:02:54;;;;;;;7.68;1.50;;;;;;;25.98;39.43;100740.09;5103511;28;20081;-82
2021/06/16 10:08:49;;;;;;;8.07;1.60;;;;;;;25.64;39.14;100736.59;5103179;28;20034;-82
2021/06/16 10:34:52;;;;;;;4.93;1.00;;;;;;;26.13;35.16;100727.38;5103314;28;20449;-82
2021/06/16 10:37:34;;;;;;;4.22;1.25;;;;;;;27.12;34.60;100726.28;5084742;28;20110;-82
2021/06/16 10:40:18;;;;;;;5.90;1.73;;;;;;;26.86;34.29;100721.34;5102012;28;20047;-82
2021/06/16 10:42:59;;;;;;;6.80;1.42;;;;;;;25.41;36.66;100725.13;5084553;28;20020;-81
2021/06/16 10:45:38;;;;;;;4.28;1.25;;;;;;;25.27;37.35;100728.84;5101624;28;20028;-81
2021/06/16 10:48:10;;;;;;;5.55;1.25;;;;;;;26.84;35.92;100725.94;5100611;28;20024;-82
2021/06/16 10:50:44;;;;;;;7.70;1.83;;;;;;;26.64;36.50;100705.50;5082402;28;20031;-82
2021/06/16 10:56:44;;;;;;;12.10;1.75;;;;;;;26.89;34.77;100706.09;5102222;28;20043;-81
2021/06/16 10:59:10;;;;;;;5.20;1.40;;;;;;;25.99;36.08;100698.44;5083717;28;20081;-80
2021/06/16 11:01:46;;;;;;;6.50;1.40;;;;;;;25.98;36.78;100702.88;5099934;28;20020;-81
2021/06/16 11:04:25;;;;;;;5.15;1.38;;;;;;;26.36;36.97;100694.47;5080206;28;20024;-80
2021/06/16 11:06:50;;;;;;;6.68;1.50;;;;;;;27.48;35.97;100698.31;5098199;28;20041;-80
2021/06/16 11:09:15;;;;;;;7.78;1.83;;;;;;;26.92;37.05;100701.34;5079366;28;20034;-80
2021/06/16 11:11:47;;;;;;;7.40;1.57;;;;;;;26.70;36.04;100694.34;5100166;28;20024;-81
2021/06/16 11:14:44;;;;;;;7.00;1.30;;;;;;;27.48;35.94;100682.31;5097166;28;20648;-81
2021/06/16 11:17:10;;;;;;;4.95;1.27;;;;;;;28.23;35.17;100682.81;5082263;28;20016;-81
2021/06/16 11:19:36;;;;;;;6.80;1.42;;;;;;;27.61;33.79;100676.75;5083630;28;20471;-81
2021/06/16 11:22:11;;;;;;;4.70;1.38;;;;;;;27.66;35.20;100674.53;5083746;28;20081;-81
2021/06/16 11:25:19;;;;;;;7.65;1.45;;;;;;;28.33;36.24;100682.84;5083705;28;20035;-82
2021/06/16 11:27:50;;;;;;;6.25;1.67;;;;;;;28.39;34.36;100672.44;5069993;28;20043;-81
2021/06/16 11:30:26;;;;;;;4.75;1.40;;;;;;;28.13;36.32;100672.13;5082886;28;20032;-81
2021/06/16 11:33:23;;;;;;;3.17;1.00;;;;;;;27.09;35.78;100666.16;5083365;28;20024;-80
2021/06/16 11:38:22;;;;;;;10.02;1.70;;;;;;;28.69;33.96;100662.59;5118757;28;20092;-79
2021/06/16 11:41:08;;;;;;;7.60;1.73;;;;;;;27.35;35.75;100657.75;5088058;28;20156;-80
2021/06/16 11:43:42;;;;;;;5.97;1.40;;;;;;;27.97;34.95;100656.69;5077326;28;20028;-80
2021/06/16 11:46:17;;;;;;;5.32;1.65;;;;;;;28.13;32.96;100649.97;5077927;28;20133;-80
2021/06/16 11:48:45;;;;;;;5.80;1.60;;;;;;;28.76;33.27;100650.41;5078014;28;20028;-80
2021/06/16 11:51:11;;;;;;;7.85;1.70;;;;;;;28.88;33.19;100646.56;5096768;28;20028;-82
2021/06/16 11:53:38;;;;;;;4.97;1.65;;;;;;;28.38;33.21;100645.91;5077455;28;20047;-81
2021/06/16 11:56:06;;;;;;;4.10;1.60;;;;;;;28.78;33.23;100644.91;5096746;28;20020;-81
2021/06/16 11:58:39;;;;;;;6.80;1.60;;;;;;;29.24;34.20;100635.22;5078794;28;20030;-80
2021/06/16 12:01:16;;;;;;;10.98;1.90;;;;;;;30.10;32.00;100634.88;5078703;28;20587;-80
2021/06/16 12:03:44;;;;;;;7.38;1.80;;;;;;;28.96;33.11;100634.31;5097616;28;20103;-80
2021/06/16 12:06:53;;;;;;;5.32;1.80;;;;;;;29.07;33.43;100637.69;5096890;28;20434;-81
2021/06/16 12:09:18;;;;;;;5.97;1.83;;;;;;;27.94;35.60;100627.63;5099591;28;20433;-80
2021/06/16 12:11:43;;;;;;;7.32;1.73;;;;;;;28.18;34.12;100613.91;5080514;28;20028;-80
2021/06/16 12:14:09;;;;;;;8.07;1.83;;;;;;;27.85;35.12;100619.63;5099746;28;20028;-80
2021/06/16 12:16:42;;;;;;;4.38;1.55;;;;;;;28.39;35.26;100613.75;5099665;28;20267;-81
2021/06/16 12:19:17;;;;;;;5.82;1.63;;;;;;;27.90;34.74;100606.72;5082832;28;20016;-81
2021/06/16 12:22:00;;;;;;;9.95;2.05;;;;;;;28.58;35.04;100606.72;5085422;28;20047;-81
2021/06/16 12:24:28;;;;;;;8.07;2.15;;;;;;;28.60;35.19;100602.94;5100874;28;20042;-81
2021/06/16 12:27:00;;;;;;;5.03;1.70;;;;;;;28.29;34.09;100601.38;5083503;28;20024;-81
2021/06/16 12:29:25;;;;;;;6.60;1.90;;;;;;;28.80;34.52;100593.03;5101137;28;20020;-81
2021/06/16 12:31:52;;;;;;;9.82;2.22;;;;;;;27.80;35.33;100589.88;5103518;28;20030;-81
2021/06/16 12:34:29;;;;;;;4.97;1.73;;;;;;;28.46;37.01;100592.69;5097472;28;20027;-81
2021/06/16 12:37:24;;;;;;;9.82;2.10;;;;;;;28.70;35.27;100583.41;5096344;28;20050;-81
2021/06/16 12:39:56;;;;;;;9.80;1.95;;;;;;;29.95;32.88;100583.75;5072896;28;20047;-81
2021/06/16 12:42:33;;;;;;;6.73;1.70;;;;;;;29.45;34.02;100574.38;5095933;28;20079;-82
2021/06/16 12:48:27;;;;;;;6.40;2.03;;;;;;;29.31;34.93;100567.72;5104438;28;20034;-82
2021/06/16 12:50:58;;;;;;;7.25;2.25;;;;;;;28.05;36.66;100567.13;5106210;28;20031;-82
2021/06/16 12:53:24;;;;;;;8.18;1.95;;;;;;;29.01;36.20;100555.47;5104106;28;20498;-82
2021/06/16 12:56:01;;;;;;;8.00;2.00;;;;;;;29.26;35.98;100561.97;5086920;28;20149;-82
2021/06/16 12:58:28;;;;;;;6.47;2.10;;;;;;;29.24;36.71;100555.06;5086664;28;20035;-81
2021/06/16 13:00:58;;;;;;;5.30;2.10;;;;;;;28.68;36.14;100557.66;5088502;28;20024;-81
2021/06/16 13:03:26;;;;;;;8.00;2.47;;;;;;;29.33;34.58;100554.19;5091776;28;20048;-82
2021/06/16 13:05:56;;;;;;;4.88;1.92;;;;;;;28.52;36.09;100552.09;5092295;28;20050;-82
2021/06/16 13:08:44;;;;;;;5.55;2.30;;;;;;;28.74;37.10;100550.06;5091507;28;20088;-82
2021/06/16 13:11:17;;;;;;;4.78;2.28;;;;;;;27.58;38.94;100548.28;5109152;28;20046;-81
2021/06/16 13:13:42;;;;;;;5.60;1.98;;;;;;;28.26;38.19;100541.16;5090976;28;20015;-81
2021/06/16 13:16:24;;;;;;;7.80;2.33;;;;;;;28.38;37.62;100547.19;5091986;28;20028;-81
2021/06/16 13:18:49;;;;;;;6.40;2.33;;;;;;;27.83;37.83;100541.59;5108688;28;20266;-81
2021/06/16 13:21:14;;;;;;;6.35;2.40;;;;;;;27.89;38.36;100544.53;5091280;28;20031;-81
2021/06/16 13:34:12;;;;;;;7.75;2.30;;;;;;;27.42;39.62;100527.50;5108427;28;20039;-81
2021/06/16 13:36:38;;;;;;;7.18;2.20;;;;;;;27.69;39.84;100525.03;5090076;28;20024;-81
2021/06/16 13:39:05;;;;;;;6.53;2.22;;;;;;;28.20;38.93;100513.25;5089959;28;20433;-81
2021/06/16 13:41:31;;;;;;;9.98;2.13;;;;;;;28.98;36.43;100514.84;5108129;28;20039;-81
2021/06/16 13:43:57;;;;;;;10.55;2.50;;;;;;;27.66;39.47;100524.47;5088836;28;20020;-80
2021/06/16 13:46:22;;;;;;;5.95;2.47;;;;;;;28.77;39.79;100521.25;5088941;28;20034;-81
2021/06/16 13:48:48;;;;;;;6.43;2.63;;;;;;;29.84;37.88;100517.97;5088938;28;20020;-83
2021/06/16 13:51:14;;;;;;;6.28;2.30;;;;;;;27.87;39.36;100524.38;5087402;28;20024;-81
2021/06/16 13:53:39;;;;;;;8.57;2.28;;;;;;;27.86;39.99;100525.34;5084866;28;20046;-82
2021/06/16 13:56:05;;;;;;;6.00;2.45;;;;;;;29.19;37.29;100506.59;5105376;28;20453;-82
2021/06/16 13:58:31;;;;;;;7.95;2.55;;;;;;;28.45;38.44;100510.97;5085553;28;20550;-82
2021/06/16 14:00:56;;;;;;;5.65;2.15;;;;;;;28.22;40.38;100505.94;5104689;28;20039;-82
2021/06/16 14:03:22;;;;;;;4.93;1.90;;;;;;;28.51;38.29;100510.41;5103832;28;20044;-82
2021/06/16 14:05:48;;;;;;;6.18;2.17;;;;;;;28.86;37.30;100503.50;5086132;28;20026;-82
2021/06/16 14:08:13;;;;;;;11.68;2.63;;;;;;;29.17;39.57;100505.91;5087377;28;20020;-82
2021/06/16 14:10:40;;;;;;;8.90;2.45;;;;;;;28.40;39.51;100505.19;5089350;28;20055;-82